Time;durP1;ratioP1;P1;durP2;ratioP2;P2;SDS_P1;SDS_P2;PMS_P1;PMS_P2;Temp;Humidity;BMP_temperature;BMP_pressure;BME280_temperature;BME280_humidity;BME280_pressure;Samples;Min_cycle;Max_cycle;Signal;HPM_P1;HPM_P2
2022/11/09 04:18:11;;;;;;;1999.90;999.90;;;;;;;;;;5130055;22;20333;-73
2022/11/09 04:20:57;;;;;;;1999.90;999.90;;;;;;;;;;5013241;28;20315;-75
2022/11/09 04:23:42;;;;;;;1999.90;999.90;;;;;;;;;;5012810;28;20415;-75
2022/11/09 04:26:27;;;;;;;1999.90;999.90;;;;;;;;;;5013411;28;20694;-75
2022/11/09 04:29:12;;;;;;;1999.90;999.90;;;;;;;;;;5010743;28;20773;-76
2022/11/09 04:31:56;;;;;;;1999.90;999.90;;;;;;;;;;5012810;28;20353;-75
2022/11/09 04:34:43;;;;;;;1999.90;999.90;;;;;;;;;;5012629;28;20691;-74
2022/11/09 04:37:27;;;;;;;1999.90;999.90;;;;;;;;;;4993415;28;20236;-75
2022/11/09 04:40:12;;;;;;;1999.90;999.90;;;;;;;;;;4999684;28;20211;-75
2022/11/09 04:42:59;;;;;;;1999.90;999.90;;;;;;;;;;5012583;28;20782;-77
2022/11/09 04:45:45;;;;;;;1999.90;999.90;;;;;;;;;;5014367;28;20211;-75
2022/11/09 04:48:31;;;;;;;1999.90;999.90;;;;;;;;;;5014844;28;20209;-76
2022/11/09 04:51:17;;;;;;;1999.90;999.90;;;;;;;;;;5016154;28;20704;-76
2022/11/09 04:54:02;;;;;;;1999.90;999.90;;;;;;;;;;5029759;28;20512;-76
2022/11/09 04:56:47;;;;;;;1999.90;999.90;;;;;;;;;;5030601;28;20218;-76
2022/11/09 04:59:32;;;;;;;1999.90;999.90;;;;;;;;;;5030547;28;20207;-76
2022/11/09 05:02:17;;;;;;;1999.90;999.90;;;;;;;;;;5030699;28;20586;-76
2022/11/09 05:05:03;;;;;;;1999.90;999.90;;;;;;;;;;5027762;28;20226;-76
2022/11/09 05:07:50;;;;;;;1999.90;999.90;;;;;;;;;;5030298;28;20235;-74
2022/11/09 05:10:35;;;;;;;1999.90;999.90;;;;;;;;;;5019459;28;20214;-76
2022/11/09 05:13:20;;;;;;;1999.90;999.90;;;;;;;;;;5003083;28;20651;-77
2022/11/09 05:16:06;;;;;;;1999.90;999.90;;;;;;;;;;5010770;28;20250;-77
2022/11/09 05:18:52;;;;;;;1999.90;999.90;;;;;;;;;;4996428;28;20212;-76
2022/11/09 05:21:37;;;;;;;1999.90;999.90;;;;;;;;;;4992834;28;20227;-77
2022/11/09 05:24:22;;;;;;;1999.90;999.90;;;;;;;;;;4992253;28;20204;-76
2022/11/09 05:27:07;;;;;;;1999.90;999.90;;;;;;;;;;4993092;28;20223;-77
2022/11/09 05:29:53;;;;;;;1999.90;999.90;;;;;;;;;;4992573;28;20300;-77
2022/11/09 05:32:39;;;;;;;1999.90;999.90;;;;;;;;;;4992631;28;20228;-77
2022/11/09 05:35:23;;;;;;;1999.90;999.90;;;;;;;;;;4992477;28;20315;-75
2022/11/09 05:38:08;;;;;;;1999.90;999.90;;;;;;;;;;5002345;28;20347;-77
2022/11/09 05:40:54;;;;;;;1999.90;999.90;;;;;;;;;;5003001;28;20213;-77
2022/11/09 05:43:39;;;;;;;1999.90;999.90;;;;;;;;;;4991690;28;20193;-77
2022/11/09 05:46:25;;;;;;;1999.90;999.90;;;;;;;;;;4992609;28;20227;-77
2022/11/09 05:49:10;;;;;;;1999.90;999.90;;;;;;;;;;4992107;28;20208;-77
2022/11/09 05:51:55;;;;;;;1999.90;999.90;;;;;;;;;;4992532;28;20212;-77
2022/11/09 05:54:40;;;;;;;1999.90;999.90;;;;;;;;;;4992051;28;20229;-77
2022/11/09 05:57:26;;;;;;;1999.90;999.90;;;;;;;;;;4992460;28;20761;-77
2022/11/09 06:00:12;;;;;;;1999.90;999.90;;;;;;;;;;4992164;28;20304;-77
2022/11/09 06:03:01;;;;;;;1999.90;999.90;;;;;;;;;;4991114;28;20408;-76
2022/11/09 06:05:46;;;;;;;1999.90;999.90;;;;;;;;;;4995894;28;20300;-77
2022/11/09 06:08:32;;;;;;;1999.90;999.90;;;;;;;;;;4996224;28;20287;-77
2022/11/09 06:11:17;;;;;;;1999.90;999.90;;;;;;;;;;4996009;28;20342;-76
2022/11/09 06:14:03;;;;;;;1999.90;999.90;;;;;;;;;;4996074;28;20221;-77
2022/11/09 06:16:48;;;;;;;1999.90;999.90;;;;;;;;;;4995945;28;20608;-76
2022/11/09 06:19:33;;;;;;;1999.90;999.90;;;;;;;;;;4996058;28;20204;-77
2022/11/09 06:22:18;;;;;;;1999.90;999.90;;;;;;;;;;4995975;28;20204;-77
2022/11/09 06:25:03;;;;;;;1999.90;999.90;;;;;;;;;;4995341;28;20208;-77
2022/11/09 06:27:48;;;;;;;1999.90;999.90;;;;;;;;;;4995853;28;20310;-77
2022/11/09 06:30:34;;;;;;;1999.90;999.90;;;;;;;;;;4996051;28;20726;-76
2022/11/09 06:33:19;;;;;;;1999.90;999.90;;;;;;;;;;5014936;28;20220;-77
2022/11/09 06:36:04;;;;;;;1999.90;999.90;;;;;;;;;;5025596;28;20224;-77
2022/11/09 06:38:49;;;;;;;1999.90;999.90;;;;;;;;;;5014655;28;20281;-77
2022/11/09 06:41:35;;;;;;;1999.90;999.90;;;;;;;;;;5014286;28;20598;-77
2022/11/09 06:44:20;;;;;;;1999.90;999.90;;;;;;;;;;5014107;28;20220;-76
2022/11/09 06:47:06;;;;;;;1999.90;999.90;;;;;;;;;;5014360;28;20235;-77
2022/11/09 06:49:51;;;;;;;1999.90;999.90;;;;;;;;;;5017882;28;20742;-74
2022/11/09 06:52:36;;;;;;;1999.90;999.90;;;;;;;;;;5011044;28;20211;-75
2022/11/09 06:55:21;;;;;;;1999.90;999.90;;;;;;;;;;5013591;28;20210;-77
2022/11/09 06:58:06;;;;;;;1999.90;999.90;;;;;;;;;;5025463;28;20237;-76
2022/11/09 07:00:51;;;;;;;1999.90;999.90;;;;;;;;;;5012007;28;20543;-78
2022/11/09 07:03:37;;;;;;;1999.90;999.90;;;;;;;;;;5014244;28;20204;-76
2022/11/09 07:06:22;;;;;;;1999.90;999.90;;;;;;;;;;5031950;28;20242;-75
2022/11/09 07:09:08;;;;;;;1999.90;999.90;;;;;;;;;;5029432;28;20209;-74
2022/11/09 07:11:53;;;;;;;1999.90;999.90;;;;;;;;;;5012621;28;20196;-73
2022/11/09 07:14:38;;;;;;;1999.90;999.90;;;;;;;;;;5013042;28;20318;-74
2022/11/09 07:17:22;;;;;;;1999.90;999.90;;;;;;;;;;5013762;28;20250;-76
2022/11/09 07:20:10;;;;;;;1999.90;999.90;;;;;;;;;;5025356;28;20461;-75
2022/11/09 07:22:55;;;;;;;1999.90;999.90;;;;;;;;;;5031746;28;20329;-75
2022/11/09 07:25:40;;;;;;;1999.90;999.90;;;;;;;;;;5031838;28;20293;-77
2022/11/09 07:28:25;;;;;;;1999.90;999.90;;;;;;;;;;5031531;28;20249;-76
2022/11/09 07:31:10;;;;;;;1999.90;999.90;;;;;;;;;;5031893;28;20576;-76
2022/11/09 07:33:57;;;;;;;1999.90;999.90;;;;;;;;;;5032257;28;20257;-76
2022/11/09 07:36:43;;;;;;;1999.90;999.90;;;;;;;;;;5031916;28;20297;-77
2022/11/09 07:39:28;;;;;;;1999.90;999.90;;;;;;;;;;5031691;28;20701;-76
2022/11/09 07:42:13;;;;;;;1999.90;999.90;;;;;;;;;;5032247;28;20217;-77
2022/11/09 07:44:58;;;;;;;1999.90;999.90;;;;;;;;;;5031614;28;20692;-76
2022/11/09 07:47:42;;;;;;;1999.90;999.90;;;;;;;;;;5031941;28;20230;-75
2022/11/09 07:50:28;;;;;;;1999.90;999.90;;;;;;;;;;5022945;28;20207;-77
2022/11/09 07:53:15;;;;;;;1999.90;999.90;;;;;;;;;;5019999;28;20339;-73
2022/11/09 07:56:01;;;;;;;1999.90;999.90;;;;;;;;;;5020753;28;20207;-76
2022/11/09 07:58:46;;;;;;;1999.90;999.90;;;;;;;;;;5012814;28;20204;-77
2022/11/09 08:01:31;;;;;;;1999.90;999.90;;;;;;;;;;5011873;28;20604;-76
2022/11/09 08:04:16;;;;;;;1999.90;999.90;;;;;;;;;;5011038;28;20312;-75
2022/11/09 08:07:00;;;;;;;1999.90;999.90;;;;;;;;;;5013347;28;20253;-76
2022/11/09 08:09:46;;;;;;;1999.90;999.90;;;;;;;;;;5013386;28;21289;-75
2022/11/09 08:12:31;;;;;;;1999.90;999.90;;;;;;;;;;5013268;28;20213;-76
2022/11/09 08:15:16;;;;;;;1999.90;999.90;;;;;;;;;;5013447;28;20249;-74
2022/11/09 08:18:02;;;;;;;1999.90;999.90;;;;;;;;;;5013154;28;20211;-77
2022/11/09 08:20:47;;;;;;;1999.90;999.90;;;;;;;;;;5009708;28;20341;-75
2022/11/09 08:23:32;;;;;;;1999.90;999.90;;;;;;;;;;5010089;28;20213;-74
2022/11/09 08:26:18;;;;;;;1999.90;999.90;;;;;;;;;;5012751;28;20825;-73
2022/11/09 08:29:03;;;;;;;1999.90;999.90;;;;;;;;;;5013332;28;20212;-76
2022/11/09 08:31:49;;;;;;;1999.90;999.90;;;;;;;;;;5013465;28;20215;-75
2022/11/09 08:34:34;;;;;;;1999.90;999.90;;;;;;;;;;5022757;28;20230;-76
2022/11/09 08:37:22;;;;;;;1999.90;999.90;;;;;;;;;;5001951;28;20423;-76
2022/11/09 08:40:07;;;;;;;1999.90;999.90;;;;;;;;;;5005183;28;20324;-75
2022/11/09 08:42:54;;;;;;;1999.90;999.90;;;;;;;;;;5003954;28;20335;-74
2022/11/09 08:45:39;;;;;;;1999.90;999.90;;;;;;;;;;5001149;28;20220;-75
2022/11/09 08:48:24;;;;;;;1999.90;999.90;;;;;;;;;;5003329;28;20237;-76
2022/11/09 08:51:09;;;;;;;1999.90;999.90;;;;;;;;;;5000162;28;20232;-74
2022/11/09 08:53:54;;;;;;;1999.90;999.90;;;;;;;;;;5006010;28;20688;-75
2022/11/09 08:56:40;;;;;;;1999.90;999.90;;;;;;;;;;5001940;28;20240;-74
2022/11/09 08:59:26;;;;;;;1999.90;999.90;;;;;;;;;;5001277;28;21018;-73
2022/11/09 09:02:12;;;;;;;1999.90;999.90;;;;;;;;;;5007930;28;20280;-73
2022/11/09 09:04:57;;;;;;;1999.90;999.90;;;;;;;;;;4999045;28;20688;-73
2022/11/09 09:07:42;;;;;;;1999.90;999.90;;;;;;;;;;4999190;28;20237;-72
2022/11/09 09:10:27;;;;;;;1999.90;999.90;;;;;;;;;;4998498;28;20205;-74
2022/11/09 09:13:12;;;;;;;1999.90;999.90;;;;;;;;;;4998120;28;20273;-74
2022/11/09 09:16:08;;;;;;;1999.90;999.90;;;;;;;;;;4991331;28;20210;-73
2022/11/09 09:18:53;;;;;;;1999.90;999.90;;;;;;;;;;5001123;28;20698;-75
2022/11/09 09:21:37;;;;;;;1999.90;999.90;;;;;;;;;;4996702;28;20210;-73
2022/11/09 09:24:23;;;;;;;1999.90;999.90;;;;;;;;;;5005055;28;20300;-75
2022/11/09 09:27:08;;;;;;;1999.90;999.90;;;;;;;;;;5003897;28;20368;-73
2022/11/09 09:29:52;;;;;;;1999.90;999.90;;;;;;;;;;4999774;28;20221;-76
2022/11/09 09:32:39;;;;;;;1999.90;999.90;;;;;;;;;;5000938;28;20221;-72
2022/11/09 09:35:24;;;;;;;1999.90;999.90;;;;;;;;;;4995530;28;20237;-74
2022/11/09 09:38:09;;;;;;;1999.90;999.90;;;;;;;;;;5003060;28;20719;-74
2022/11/09 09:40:56;;;;;;;1999.90;999.90;;;;;;;;;;4997232;28;20230;-72
2022/11/09 09:43:43;;;;;;;1999.90;999.90;;;;;;;;;;5006918;28;20224;-73
2022/11/09 09:46:31;;;;;;;1999.90;999.90;;;;;;;;;;5006506;28;20310;-74
2022/11/09 09:49:20;;;;;;;1999.90;999.90;;;;;;;;;;5004942;28;20215;-72
2022/11/09 09:52:07;;;;;;;1999.90;999.90;;;;;;;;;;5006511;28;20587;-72
2022/11/09 09:54:56;;;;;;;1999.90;999.90;;;;;;;;;;5000275;28;20441;-75
2022/11/09 09:57:42;;;;;;;1999.90;999.90;;;;;;;;;;5006994;28;20226;-76
2022/11/09 10:00:28;;;;;;;1999.90;999.90;;;;;;;;;;4999752;28;20226;-74
2022/11/09 10:03:15;;;;;;;1999.90;999.90;;;;;;;;;;4998981;28;20255;-75
2022/11/09 10:06:08;;;;;;;1999.90;999.90;;;;;;;;;;4998155;28;20581;-75
2022/11/09 10:08:56;;;;;;;1999.90;999.90;;;;;;;;;;4999440;28;20217;-75
2022/11/09 10:11:46;;;;;;;1999.90;999.90;;;;;;;;;;4999631;28;20211;-74
2022/11/09 10:14:40;;;;;;;1999.90;999.90;;;;;;;;;;5007759;28;20229;-74
2022/11/09 10:17:31;;;;;;;1999.90;999.90;;;;;;;;;;5001774;28;20238;-75
2022/11/09 10:20:24;;;;;;;1999.90;999.90;;;;;;;;;;4996287;28;20608;-73
2022/11/09 10:23:20;;;;;;;1999.90;999.90;;;;;;;;;;4999114;28;20292;-76
2022/11/09 10:26:10;;;;;;;1999.90;999.90;;;;;;;;;;4998465;28;20227;-73
2022/11/09 10:28:57;;;;;;;1999.90;999.90;;;;;;;;;;5005899;28;20422;-73
2022/11/09 10:31:43;;;;;;;1999.90;999.90;;;;;;;;;;4993984;28;20238;-74
2022/11/09 10:34:29;;;;;;;1999.90;999.90;;;;;;;;;;5000675;28;20226;-74
2022/11/09 10:37:16;;;;;;;1999.90;999.90;;;;;;;;;;4996911;28;20605;-75
2022/11/09 10:40:05;;;;;;;1999.90;999.90;;;;;;;;;;4991885;28;20254;-74
2022/11/09 10:42:52;;;;;;;1999.90;999.90;;;;;;;;;;5008513;28;20282;-75
2022/11/09 10:45:38;;;;;;;1999.90;999.90;;;;;;;;;;4999609;28;20514;-74
2022/11/09 10:48:30;;;;;;;1999.90;999.90;;;;;;;;;;4993725;28;20324;-74
2022/11/09 10:51:30;;;;;;;1999.90;999.90;;;;;;;;;;5004032;28;20211;-74
2022/11/09 10:54:18;;;;;;;1999.90;999.90;;;;;;;;;;4996328;28;20258;-73
2022/11/09 10:57:11;;;;;;;1999.90;999.90;;;;;;;;;;4996335;28;20299;-73
2022/11/09 10:59:57;;;;;;;1999.90;999.90;;;;;;;;;;5007939;28;20198;-74
2022/11/09 11:02:43;;;;;;;1999.90;999.90;;;;;;;;;;5002862;28;20282;-71
2022/11/09 11:05:29;;;;;;;1999.90;999.90;;;;;;;;;;5009967;28;20704;-73
2022/11/09 11:08:22;;;;;;;1999.90;999.90;;;;;;;;;;4997297;28;20285;-74
2022/11/09 11:11:08;;;;;;;1999.90;999.90;;;;;;;;;;4998321;28;20250;-72
2022/11/09 11:14:05;;;;;;;1999.90;999.90;;;;;;;;;;4998204;28;20203;-73
2022/11/09 11:16:51;;;;;;;1999.90;999.90;;;;;;;;;;4996628;28;20740;-76
2022/11/09 11:19:38;;;;;;;1999.90;999.90;;;;;;;;;;4995790;28;20234;-77
2022/11/09 11:22:26;;;;;;;1999.90;999.90;;;;;;;;;;5007390;28;20687;-75
2022/11/09 11:25:18;;;;;;;1999.90;999.90;;;;;;;;;;5011267;28;20201;-74
2022/11/09 11:28:05;;;;;;;1999.90;999.90;;;;;;;;;;5005895;28;20229;-72
2022/11/09 11:30:52;;;;;;;1999.90;999.90;;;;;;;;;;5005488;28;20210;-75
2022/11/09 11:33:37;;;;;;;1999.90;999.90;;;;;;;;;;5001947;28;20282;-74
2022/11/09 11:36:25;;;;;;;1999.90;999.90;;;;;;;;;;5002639;28;20305;-74
2022/11/09 11:39:14;;;;;;;1999.90;999.90;;;;;;;;;;4995071;28;20331;-74
2022/11/09 11:42:17;;;;;;;1999.90;999.90;;;;;;;;;;5005348;28;20337;-75
2022/11/09 11:45:13;;;;;;;1999.90;999.90;;;;;;;;;;5004881;28;20203;-74
2022/11/09 11:48:07;;;;;;;1999.90;999.90;;;;;;;;;;4997827;28;20223;-72
2022/11/09 11:50:56;;;;;;;1999.90;999.90;;;;;;;;;;5001625;28;20807;-75
2022/11/09 11:53:45;;;;;;;1999.90;999.90;;;;;;;;;;5008914;28;20692;-74
2022/11/09 11:56:32;;;;;;;1999.90;999.90;;;;;;;;;;5005495;28;20246;-74
2022/11/09 11:59:28;;;;;;;1999.90;999.90;;;;;;;;;;4998485;28;20323;-73
2022/11/09 12:02:26;;;;;;;1999.90;999.90;;;;;;;;;;4992634;28;20271;-75
2022/11/09 12:05:28;;;;;;;1999.90;999.90;;;;;;;;;;5005311;28;20214;-73
2022/11/09 12:08:15;;;;;;;1999.90;999.90;;;;;;;;;;5010587;28;20222;-73
2022/11/09 12:11:07;;;;;;;1999.90;999.90;;;;;;;;;;5005272;28;20233;-73
2022/11/09 12:13:57;;;;;;;1999.90;999.90;;;;;;;;;;5000365;28;20578;-74
2022/11/09 12:16:45;;;;;;;1999.90;999.90;;;;;;;;;;5001558;28;20380;-73
2022/11/09 12:19:42;;;;;;;1999.90;999.90;;;;;;;;;;5004057;28;20704;-73
2022/11/09 12:22:33;;;;;;;1999.90;999.90;;;;;;;;;;5009296;28;20226;-75
2022/11/09 12:25:22;;;;;;;1999.90;999.90;;;;;;;;;;5006171;28;20407;-74
2022/11/09 12:28:13;;;;;;;1999.90;999.90;;;;;;;;;;5006855;28;20274;-76
2022/11/09 12:31:04;;;;;;;1999.90;999.90;;;;;;;;;;5008992;28;20206;-74
2022/11/09 12:33:53;;;;;;;1999.90;999.90;;;;;;;;;;5009929;28;20206;-75
2022/11/09 12:36:40;;;;;;;1999.90;999.90;;;;;;;;;;5008964;28;20300;-74
2022/11/09 12:39:29;;;;;;;1999.90;999.90;;;;;;;;;;4996381;28;20693;-75
2022/11/09 12:42:17;;;;;;;1999.90;999.90;;;;;;;;;;4998178;28;20331;-75
2022/11/09 12:45:04;;;;;;;1999.90;999.90;;;;;;;;;;4999136;28;20210;-75
2022/11/09 12:47:53;;;;;;;1999.90;999.90;;;;;;;;;;4997295;28;20436;-75
2022/11/09 12:50:38;;;;;;;1999.90;999.90;;;;;;;;;;4998769;28;20234;-74
2022/11/09 12:53:25;;;;;;;1999.90;999.90;;;;;;;;;;5002019;28;20697;-75
2022/11/09 12:56:16;;;;;;;1999.90;999.90;;;;;;;;;;5008686;28;20229;-75
2022/11/09 12:59:19;;;;;;;1999.90;999.90;;;;;;;;;;5009344;28;20342;-75
2022/11/09 13:02:05;;;;;;;1999.90;999.90;;;;;;;;;;4998428;28;20229;-75
2022/11/09 13:04:57;;;;;;;1999.90;999.90;;;;;;;;;;5004536;28;20695;-74
2022/11/09 13:07:45;;;;;;;1999.90;999.90;;;;;;;;;;5009273;28;20236;-74
2022/11/09 13:10:33;;;;;;;1999.90;999.90;;;;;;;;;;5007344;28;20215;-74
2022/11/09 13:13:24;;;;;;;1999.90;999.90;;;;;;;;;;4999331;28;20214;-74
2022/11/09 13:16:10;;;;;;;1999.90;999.90;;;;;;;;;;4992996;28;20301;-74
2022/11/09 13:18:55;;;;;;;1999.90;999.90;;;;;;;;;;4991755;28;20207;-75
2022/11/09 13:21:40;;;;;;;1999.90;999.90;;;;;;;;;;5000199;28;20209;-73
2022/11/09 13:24:52;;;;;;;1999.90;999.90;;;;;;;;;;5002278;28;20210;-73
2022/11/09 13:27:42;;;;;;;1999.90;999.90;;;;;;;;;;5008565;28;20289;-73
2022/11/09 13:30:38;;;;;;;1999.90;999.90;;;;;;;;;;5005177;28;20343;-74
2022/11/09 13:33:24;;;;;;;1999.90;999.90;;;;;;;;;;5003553;28;20218;-75
2022/11/09 13:36:14;;;;;;;1999.90;999.90;;;;;;;;;;5005530;28;20234;-73
2022/11/09 13:39:18;;;;;;;1999.90;999.90;;;;;;;;;;5004278;28;20293;-76
2022/11/09 13:42:17;;;;;;;1999.90;999.90;;;;;;;;;;5005617;28;20487;-74
2022/11/09 13:45:17;;;;;;;1999.90;999.90;;;;;;;;;;5004341;28;20206;-72
2022/11/09 13:48:05;;;;;;;1999.90;999.90;;;;;;;;;;5002676;28;20305;-75
2022/11/09 13:50:51;;;;;;;1999.90;999.90;;;;;;;;;;5001217;28;20218;-75
2022/11/09 13:53:51;;;;;;;1999.90;999.90;;;;;;;;;;5006482;28;20766;-75
2022/11/09 13:56:38;;;;;;;1999.90;999.90;;;;;;;;;;5011238;28;20320;-75
2022/11/09 13:59:26;;;;;;;1999.90;999.90;;;;;;;;;;5011531;28;20206;-73
2022/11/09 14:02:17;;;;;;;1999.90;999.90;;;;;;;;;;5011155;28;20282;-72
2022/11/09 14:05:03;;;;;;;1999.90;999.90;;;;;;;;;;5011687;28;20203;-73
2022/11/09 14:07:48;;;;;;;1999.90;999.90;;;;;;;;;;5010260;28;20728;-74
2022/11/09 14:10:43;;;;;;;1999.90;999.90;;;;;;;;;;5001208;28;20215;-74
2022/11/09 14:13:39;;;;;;;1999.90;999.90;;;;;;;;;;5010416;28;20210;-75
2022/11/09 14:16:28;;;;;;;1999.90;999.90;;;;;;;;;;5006967;28;20322;-75
2022/11/09 14:19:18;;;;;;;1999.90;999.90;;;;;;;;;;4992213;28;20211;-75
2022/11/09 14:22:13;;;;;;;1999.90;999.90;;;;;;;;;;5010184;28;20315;-73
2022/11/09 14:24:58;;;;;;;1999.90;999.90;;;;;;;;;;5011748;28;20214;-75
2022/11/09 14:27:49;;;;;;;1999.90;999.90;;;;;;;;;;5015333;28;20366;-74
2022/11/09 14:30:43;;;;;;;1999.90;999.90;;;;;;;;;;5015087;28;20607;-74
2022/11/09 14:33:29;;;;;;;1999.90;999.90;;;;;;;;;;5015608;28;20206;-75
2022/11/09 14:36:15;;;;;;;1999.90;999.90;;;;;;;;;;5021432;28;20313;-75
2022/11/09 14:39:02;;;;;;;1999.90;999.90;;;;;;;;;;5015004;28;20575;-73
2022/11/09 14:41:48;;;;;;;1999.90;999.90;;;;;;;;;;5002232;28;20214;-74
2022/11/09 14:44:39;;;;;;;1999.90;999.90;;;;;;;;;;5014698;28;20691;-74
2022/11/09 14:47:27;;;;;;;1999.90;999.90;;;;;;;;;;5012659;28;20222;-75
2022/11/09 14:50:15;;;;;;;1999.90;999.90;;;;;;;;;;5010796;28;20214;-75
2022/11/09 14:53:01;;;;;;;1999.90;999.90;;;;;;;;;;5006284;28;20215;-73
2022/11/09 14:55:48;;;;;;;1999.90;999.90;;;;;;;;;;5015765;28;20438;-75
2022/11/09 14:58:35;;;;;;;1999.90;999.90;;;;;;;;;;5013390;28;20632;-77
2022/11/09 15:01:22;;;;;;;1999.90;999.90;;;;;;;;;;5014483;28;20202;-74
2022/11/09 15:04:09;;;;;;;1999.90;999.90;;;;;;;;;;5013183;28;20206;-74
2022/11/09 15:06:56;;;;;;;1999.90;999.90;;;;;;;;;;5014624;28;20233;-73
2022/11/09 15:09:42;;;;;;;1999.90;999.90;;;;;;;;;;5014038;28;20277;-71
2022/11/09 15:12:29;;;;;;;1999.90;999.90;;;;;;;;;;4995194;28;20319;-73
2022/11/09 15:15:18;;;;;;;1999.90;999.90;;;;;;;;;;4994735;28;20200;-73
2022/11/09 15:18:03;;;;;;;1999.90;999.90;;;;;;;;;;4994911;28;20231;-73
2022/11/09 15:20:48;;;;;;;1999.90;999.90;;;;;;;;;;4995226;28;20210;-74
2022/11/09 15:23:36;;;;;;;1999.90;999.90;;;;;;;;;;4994964;28;20214;-73
2022/11/09 15:26:26;;;;;;;1999.90;999.90;;;;;;;;;;4994290;28;20223;-73
2022/11/09 15:29:29;;;;;;;1999.90;999.90;;;;;;;;;;4994870;28;20215;-73
2022/11/09 15:32:16;;;;;;;1999.90;999.90;;;;;;;;;;4994590;28;20705;-72
2022/11/09 15:35:01;;;;;;;1999.90;999.90;;;;;;;;;;4994482;28;20247;-73
2022/11/09 15:37:49;;;;;;;1999.90;999.90;;;;;;;;;;4993402;28;20809;-73
2022/11/09 15:40:34;;;;;;;1999.90;999.90;;;;;;;;;;4994703;28;20681;-73
2022/11/09 15:43:19;;;;;;;1999.90;999.90;;;;;;;;;;4994323;28;20206;-73
2022/11/09 15:46:06;;;;;;;1999.90;999.90;;;;;;;;;;4994418;28;20742;-73
2022/11/09 15:48:51;;;;;;;1999.90;999.90;;;;;;;;;;4994522;28;20204;-73
2022/11/09 15:51:36;;;;;;;1999.90;999.90;;;;;;;;;;4993293;28;20947;-73
2022/11/09 15:54:22;;;;;;;1999.90;999.90;;;;;;;;;;4994127;28;20602;-72
2022/11/09 15:57:07;;;;;;;1999.90;999.90;;;;;;;;;;4994125;28;20239;-72
2022/11/09 15:59:52;;;;;;;1999.90;999.90;;;;;;;;;;4994326;28;20692;-73
2022/11/09 16:02:38;;;;;;;1999.90;999.90;;;;;;;;;;4994429;28;20210;-73
2022/11/09 16:05:26;;;;;;;1999.90;999.90;;;;;;;;;;4993965;28;20677;-73
2022/11/09 16:08:12;;;;;;;1999.90;999.90;;;;;;;;;;4994173;28;20206;-73
2022/11/09 16:10:56;;;;;;;1999.90;999.90;;;;;;;;;;4993125;28;20425;-74
2022/11/09 16:13:41;;;;;;;1999.90;999.90;;;;;;;;;;4994336;28;20605;-72
2022/11/09 16:16:27;;;;;;;1999.90;999.90;;;;;;;;;;4993283;28;20278;-72
2022/11/09 16:19:14;;;;;;;1999.90;999.90;;;;;;;;;;4993989;28;20199;-73
2022/11/09 16:22:01;;;;;;;1999.90;999.90;;;;;;;;;;4994019;28;20210;-73
2022/11/09 16:24:47;;;;;;;1999.90;999.90;;;;;;;;;;4993556;28;20585;-73
2022/11/09 16:27:32;;;;;;;1999.90;999.90;;;;;;;;;;4993645;28;20230;-72
2022/11/09 16:30:17;;;;;;;1999.90;999.90;;;;;;;;;;4993716;28;20207;-72
2022/11/09 16:33:02;;;;;;;1999.90;999.90;;;;;;;;;;4993915;28;20211;-73
2022/11/09 16:35:48;;;;;;;1999.90;999.90;;;;;;;;;;4993366;28;20217;-73
2022/11/09 16:38:36;;;;;;;1999.90;999.90;;;;;;;;;;4993688;28;20780;-73
2022/11/09 16:41:22;;;;;;;1999.90;999.90;;;;;;;;;;4993738;28;20218;-71
2022/11/09 16:44:07;;;;;;;1999.90;999.90;;;;;;;;;;4993555;28;20217;-73
2022/11/09 16:46:52;;;;;;;1999.90;999.90;;;;;;;;;;4993342;28;20226;-73
2022/11/09 16:49:37;;;;;;;1999.90;999.90;;;;;;;;;;4993436;28;20218;-72
2022/11/09 16:52:23;;;;;;;1999.90;999.90;;;;;;;;;;4993584;28;20341;-73
2022/11/09 16:55:09;;;;;;;1999.90;999.90;;;;;;;;;;4995920;28;20297;-74
2022/11/09 16:57:54;;;;;;;1999.90;999.90;;;;;;;;;;4996042;28;20218;-73
2022/11/09 17:00:43;;;;;;;1999.90;999.90;;;;;;;;;;4996375;28;20218;-73
2022/11/09 17:03:27;;;;;;;1999.90;999.90;;;;;;;;;;4993160;28;20260;-73
2022/11/09 17:06:12;;;;;;;1999.90;999.90;;;;;;;;;;4991547;28;20436;-73
2022/11/09 17:08:59;;;;;;;1999.90;999.90;;;;;;;;;;4993004;28;20712;-74
2022/11/09 17:11:44;;;;;;;1999.90;999.90;;;;;;;;;;4992707;28;20217;-73
2022/11/09 17:14:28;;;;;;;1999.90;999.90;;;;;;;;;;4992858;28;20210;-73
2022/11/09 17:17:14;;;;;;;1999.90;999.90;;;;;;;;;;4992486;28;20253;-72
2022/11/09 17:20:00;;;;;;;1999.90;999.90;;;;;;;;;;4994032;28;20226;-73
2022/11/09 17:22:45;;;;;;;1999.90;999.90;;;;;;;;;;4993116;28;20781;-73
2022/11/09 17:25:31;;;;;;;1999.90;999.90;;;;;;;;;;4992147;28;20746;-72
2022/11/09 17:28:16;;;;;;;1999.90;999.90;;;;;;;;;;4993166;28;20207;-73
2022/11/09 17:31:06;;;;;;;1999.90;999.90;;;;;;;;;;4992784;28;20207;-73
2022/11/09 17:33:51;;;;;;;1999.90;999.90;;;;;;;;;;4992425;28;20253;-74
2022/11/09 17:36:35;;;;;;;1999.90;999.90;;;;;;;;;;4992294;28;20313;-74
2022/11/09 17:39:21;;;;;;;1999.90;999.90;;;;;;;;;;4992869;28;20337;-74
2022/11/09 17:42:07;;;;;;;1999.90;999.90;;;;;;;;;;4992575;28;20213;-73
2022/11/09 17:44:52;;;;;;;1999.90;999.90;;;;;;;;;;4992550;28;20205;-74
2022/11/09 17:47:37;;;;;;;1999.90;999.90;;;;;;;;;;4992565;28;20349;-73
2022/11/09 17:50:22;;;;;;;1999.90;999.90;;;;;;;;;;4992606;28;20696;-74
2022/11/09 17:53:07;;;;;;;1999.90;999.90;;;;;;;;;;4992390;28;20300;-74
2022/11/09 17:55:52;;;;;;;1999.90;999.90;;;;;;;;;;4992069;28;20683;-74
2022/11/09 17:58:39;;;;;;;1999.90;999.90;;;;;;;;;;4992525;28;20205;-73
2022/11/09 18:01:25;;;;;;;1999.90;999.90;;;;;;;;;;4996517;28;20204;-74
2022/11/09 18:04:10;;;;;;;1999.90;999.90;;;;;;;;;;4996496;28;20214;-73
2022/11/09 18:06:55;;;;;;;1999.90;999.90;;;;;;;;;;4996422;28;20224;-73
2022/11/09 18:09:40;;;;;;;1999.90;999.90;;;;;;;;;;4996502;28;20688;-73
2022/11/09 18:12:25;;;;;;;1999.90;999.90;;;;;;;;;;4996325;28;20307;-74
2022/11/09 18:15:12;;;;;;;1999.90;999.90;;;;;;;;;;4996004;28;20585;-74
2022/11/09 18:17:57;;;;;;;1999.90;999.90;;;;;;;;;;4995795;28;20233;-74
2022/11/09 18:20:41;;;;;;;1999.90;999.90;;;;;;;;;;4996016;28;20296;-74
2022/11/09 18:23:26;;;;;;;1999.90;999.90;;;;;;;;;;4996172;28;20301;-74
2022/11/09 18:26:12;;;;;;;1999.90;999.90;;;;;;;;;;4995453;28;20715;-74
2022/11/09 18:28:57;;;;;;;1999.90;999.90;;;;;;;;;;4995756;28;20583;-73
2022/11/09 18:31:43;;;;;;;1999.90;999.90;;;;;;;;;;4995923;28;20226;-74
2022/11/09 18:34:28;;;;;;;1999.90;999.90;;;;;;;;;;4995595;28;20226;-73
2022/11/09 18:37:13;;;;;;;1999.90;999.90;;;;;;;;;;4995637;28;20256;-73
2022/11/09 18:39:58;;;;;;;1999.90;999.90;;;;;;;;;;4995809;28;20211;-74
2022/11/09 18:42:42;;;;;;;1999.90;999.90;;;;;;;;;;4995675;28;20226;-73
2022/11/09 18:45:28;;;;;;;1999.90;999.90;;;;;;;;;;4995436;28;20329;-74
2022/11/09 18:48:14;;;;;;;1999.90;999.90;;;;;;;;;;4995639;28;20209;-73
2022/11/09 18:51:00;;;;;;;1999.90;999.90;;;;;;;;;;4995335;28;20205;-74
2022/11/09 18:53:46;;;;;;;1999.90;999.90;;;;;;;;;;4995629;28;20580;-74
2022/11/09 18:56:30;;;;;;;1999.90;999.90;;;;;;;;;;4995476;28;20616;-73
2022/11/09 18:59:15;;;;;;;1999.90;999.90;;;;;;;;;;4995359;28;20583;-73
2022/11/09 19:02:00;;;;;;;1999.90;999.90;;;;;;;;;;4995171;28;20206;-73
2022/11/09 19:04:47;;;;;;;1999.90;999.90;;;;;;;;;;4995076;28;20254;-74
2022/11/09 19:07:31;;;;;;;1999.90;999.90;;;;;;;;;;4995138;28;20296;-74
2022/11/09 19:10:16;;;;;;;1999.90;999.90;;;;;;;;;;4995171;28;20209;-74
2022/11/09 19:13:01;;;;;;;1999.90;999.90;;;;;;;;;;4995166;28;20929;-73
2022/11/09 19:15:47;;;;;;;1999.90;999.90;;;;;;;;;;4994816;28;20201;-74
2022/11/09 19:18:32;;;;;;;1999.90;999.90;;;;;;;;;;4995280;28;20661;-74
2022/11/09 19:21:35;;;;;;;1999.90;999.90;;;;;;;;;;4995093;28;20225;-73
2022/11/09 19:24:22;;;;;;;1999.90;999.90;;;;;;;;;;4994557;28;20211;-72
2022/11/09 19:27:07;;;;;;;1999.90;999.90;;;;;;;;;;4994883;28;20226;-73
2022/11/09 19:29:52;;;;;;;1999.90;999.90;;;;;;;;;;4994971;28;20211;-73
2022/11/09 19:32:37;;;;;;;1999.90;999.90;;;;;;;;;;4994811;28;20209;-73
2022/11/09 19:35:22;;;;;;;1999.90;999.90;;;;;;;;;;4994508;28;20276;-73
2022/11/09 19:38:07;;;;;;;1999.90;999.90;;;;;;;;;;4993132;28;20437;-73
2022/11/09 19:40:55;;;;;;;1999.90;999.90;;;;;;;;;;4994641;28;20229;-72
2022/11/09 19:43:40;;;;;;;1999.90;999.90;;;;;;;;;;4995010;28;20217;-73
2022/11/09 19:46:25;;;;;;;1999.90;999.90;;;;;;;;;;4994383;28;20361;-73
2022/11/09 19:49:10;;;;;;;1999.90;999.90;;;;;;;;;;4994702;28;20573;-74